Arney, Indiana
Current Conditions -  °F | °C
As of 8:53 PM on Saturday 22 Nov 2014 (Local Time) from KBMG Reporting Station
Scattered Clouds Scattered Clouds  
Wind Chill: 55°   Ceiling: Unl
Heat Index: 55°   Visibility: 10mi
Dew Point: 37°   Wind: 9mph
Humidity: 51%   Direction: 190°S
Pressure: 30.02"   Gusts: NA
Location:  39.2107°N, 86.8508°W
Report Text: KBMG 230153Z 19008KT 10SM SCT085 13/03 A3002 RMK AO2 RAB0056E15 SLP167 P0000 T01280028
Loading
Personal Weather Stations






























Interactive Weather Map New forecast layout! Learn more

10-Day Weather Forecast

Advertisements
Track Severe Weather on mobile